Time;durP1;ratioP1;P1;durP2;ratioP2;P2;SDS_P1;SDS_P2;PMS_P1;PMS_P2;Temp;Humidity;BMP_temperature;BMP_pressure;BME280_temperature;BME280_humidity;BME280_pressure;Samples;Min_cycle;Max_cycle;Signal;HPM_P1;HPM_P2
2024/01/22 00:02:06;;;;;;;8.88;3.75;;;;;;;;;;5077439;28;20548;-66
2024/01/22 00:04:32;;;;;;;8.20;3.65;;;;;;;;;;5094104;28;20043;-66
2024/01/22 00:06:58;;;;;;;7.88;3.70;;;;;;;;;;5095787;28;20051;-66
2024/01/22 00:09:24;;;;;;;6.45;3.83;;;;;;;;;;5056305;28;20056;-66
2024/01/22 00:11:50;;;;;;;7.07;3.88;;;;;;;;;;5082493;28;20071;-66
2024/01/22 00:14:16;;;;;;;6.82;3.40;;;;;;;;;;5077032;28;20119;-66
2024/01/22 00:16:42;;;;;;;7.82;3.63;;;;;;;;;;5076983;28;20051;-66
2024/01/22 00:19:08;;;;;;;6.65;3.60;;;;;;;;;;5095552;28;20143;-66
2024/01/22 00:21:33;;;;;;;6.15;3.40;;;13.40;87.60;;;;;;5077178;28;20378;-66
2024/01/22 00:23:59;;;;;;;5.93;3.30;;;13.40;88.30;;;;;;5088652;28;20070;-66
2024/01/22 00:26:25;;;;;;;7.20;3.28;;;;;;;;;;5067395;28;20051;-66
2024/01/22 00:28:51;;;;;;;7.43;3.50;;;13.30;87.00;;;;;;5040623;28;20429;-66
2024/01/22 00:31:16;;;;;;;7.35;3.47;;;13.40;88.60;;;;;;5060358;28;20055;-66
2024/01/22 00:33:43;;;;;;;6.85;3.63;;;13.70;86.30;;;;;;5075321;28;20048;-66
2024/01/22 00:36:15;;;;;;;5.15;3.05;;;13.20;86.20;;;;;;5059850;28;20048;-66
2024/01/22 00:38:41;;;;;;;6.25;3.22;;;;;;;;;;5056323;28;20044;-66
2024/01/22 00:41:07;;;;;;;7.18;3.95;;;;;;;;;;5079055;28;20059;-66
2024/01/22 00:43:33;;;;;;;8.32;3.53;;;13.30;88.00;;;;;;5049793;28;20052;-66
2024/01/22 00:46:01;;;;;;;5.75;3.20;;;13.40;89.10;;;;;;5059796;28;20048;-66
2024/01/22 00:48:27;;;;;;;7.10;3.67;;;;;;;;;;5059975;28;20105;-66
2024/01/22 00:50:53;;;;;;;6.25;3.00;;;;;;;;;;5076712;28;20401;-66
2024/01/22 00:53:19;;;;;;;6.68;3.22;;;;;;;;;;5076473;28;20489;-66
2024/01/22 00:55:44;;;;;;;6.70;3.33;;;13.00;89.90;;;;;;5076377;28;20509;-66
2024/01/22 00:58:10;;;;;;;7.85;3.63;;;13.00;90.00;;;;;;5056753;28;20083;-66
2024/01/22 01:00:36;;;;;;;5.68;3.00;;;13.00;90.00;;;;;;5087642;28;20482;-66
2024/01/22 01:03:01;;;;;;;6.45;3.20;;;13.10;90.00;;;;;;5039698;28;20119;-66
2024/01/22 01:05:27;;;;;;;5.57;3.20;;;;;;;;;;5039599;28;20048;-66
2024/01/22 01:07:53;;;;;;;7.30;3.10;;;13.30;87.40;;;;;;5062360;28;20405;-66
2024/01/22 01:10:19;;;;;;;5.63;3.08;;;;;;;;;;5076452;28;20046;-66
2024/01/22 01:12:45;;;;;;;6.35;3.25;;;;;;;;;;5076170;28;20051;-66
2024/01/22 01:15:11;;;;;;;7.63;3.20;;;;;;;;;;5076101;28;20044;-66
2024/01/22 01:17:37;;;;;;;5.80;2.95;;;13.50;89.40;;;;;;5069874;28;20123;-66
2024/01/22 01:20:06;;;;;;;5.97;2.95;;;;;;;;;;5072902;28;20545;-66
2024/01/22 01:22:32;;;;;;;6.28;3.60;;;;;;;;;;5040063;28;20395;-66
2024/01/22 01:24:58;;;;;;;5.93;3.35;;;;;;;;;;5073614;28;20139;-66
2024/01/22 01:27:24;;;;;;;6.55;3.60;;;13.70;89.40;;;;;;5055831;28;20052;-66
2024/01/22 01:29:49;;;;;;;5.35;3.28;;;13.80;89.50;;;;;;5056003;28;20093;-66
2024/01/22 01:32:15;;;;;;;7.00;3.10;;;;;;;;;;5074094;28;20047;-66
2024/01/22 01:34:41;;;;;;;7.18;3.08;;;;;;;;;;5070556;28;20056;-66
2024/01/22 01:37:07;;;;;;;5.75;3.17;;;;;;;;;;5076365;28;20070;-66
2024/01/22 01:39:33;;;;;;;6.60;3.40;;;;;;;;;;5076385;28;20453;-66
2024/01/22 01:41:59;;;;;;;7.65;3.17;;;;;;;;;;5080942;28;20056;-67
2024/01/22 01:44:54;;;;;;;6.85;3.00;;;13.30;88.30;;;;;;5072742;28;20053;-66
2024/01/22 01:47:20;;;;;;;6.50;3.05;;;13.30;90.10;;;;;;5054459;28;20060;-66
2024/01/22 01:49:46;;;;;;;5.85;3.10;;;;;;;;;;5072652;28;20062;-66
2024/01/22 01:52:13;;;;;;;5.97;2.85;;;;;;;;;;5065107;28;20424;-66
2024/01/22 01:54:39;;;;;;;6.55;2.90;;;;;;;;;;5074837;28;20047;-66
2024/01/22 01:57:08;;;;;;;5.85;3.17;;;13.10;89.50;;;;;;5075381;28;20075;-66
2024/01/22 01:59:35;;;;;;;5.60;3.08;;;;;;;;;;5058228;28;20051;-66
2024/01/22 02:02:01;;;;;;;6.32;2.85;;;;;;;;;;5070990;28;20070;-66
2024/01/22 02:04:26;;;;;;;7.00;3.38;;;12.80;90.80;;;;;;5058041;28;20054;-67
2024/01/22 02:06:52;;;;;;;5.85;2.85;;;12.80;90.90;;;;;;5092879;28;20119;-66
2024/01/22 02:09:18;;;;;;;6.28;3.35;;;;;;;;;;5063451;28;20475;-66
2024/01/22 02:11:44;;;;;;;7.07;3.45;;;;;;;;;;5092187;28;20729;-66
2024/01/22 02:14:10;;;;;;;6.50;2.97;;;;;;;;;;5074952;28;20060;-66
2024/01/22 02:16:36;;;;;;;7.03;3.22;;;;;;;;;;5074568;28;20048;-66
2024/01/22 02:19:02;;;;;;;6.30;3.05;;;;;;;;;;5075039;28;20110;-66
2024/01/22 02:21:28;;;;;;;5.60;3.00;;;;;;;;;;5074912;28;20409;-65
2024/01/22 02:23:54;;;;;;;7.05;3.00;;;;;;;;;;5074459;28;20063;-66
2024/01/22 02:26:20;;;;;;;5.97;3.20;;;;;;;;;;5074800;28;20505;-66
2024/01/22 02:28:46;;;;;;;7.03;3.17;;;;;;;;;;5092786;28;20140;-66
2024/01/22 02:31:12;;;;;;;5.93;3.15;;;;;;;;;;5074086;28;20043;-66
2024/01/22 02:33:38;;;;;;;6.32;3.10;;;;;;;;;;5064201;28;20059;-66
2024/01/22 02:36:05;;;;;;;8.05;2.97;;;;;;;;;;5054595;28;20048;-66
2024/01/22 02:38:30;;;;;;;5.10;2.90;;;12.20;91.10;;;;;;5054470;28;20525;-66
2024/01/22 02:40:56;;;;;;;5.40;2.80;;;;;;;;;;5054774;28;20044;-66
2024/01/22 02:43:22;;;;;;;7.20;3.30;;;12.30;92.30;;;;;;5054932;28;20086;-66
2024/01/22 02:45:49;;;;;;;6.25;3.05;;;;;;;;;;5072212;28;20088;-66
2024/01/22 02:48:15;;;;;;;8.63;3.03;;;;;;;;;;5070963;28;20118;-65
2024/01/22 02:50:40;;;;;;;8.27;2.80;;;12.30;92.60;;;;;;5071004;28;20452;-66
2024/01/22 02:53:06;;;;;;;5.63;3.05;;;12.20;92.70;;;;;;5037949;28;20052;-66
2024/01/22 02:55:32;;;;;;;7.32;3.20;;;;;;;;;;5074853;28;20513;-66
2024/01/22 02:57:58;;;;;;;7.43;3.28;;;;;;;;;;5057238;28;20123;-66
2024/01/22 03:00:24;;;;;;;5.43;2.72;;;;;;;;;;5073608;28;20048;-66
2024/01/22 03:02:50;;;;;;;6.22;2.88;;;;;;;;;;5092509;28;20167;-66
2024/01/22 03:05:17;;;;;;;6.32;3.30;;;;;;;;;;5079478;28;20102;-66
2024/01/22 03:07:43;;;;;;;6.15;3.10;;;;;;;;;;5054078;28;20052;-67
2024/01/22 03:10:10;;;;;;;5.65;2.88;;;11.90;93.30;;;;;;5072101;28;20059;-66
2024/01/22 03:12:36;;;;;;;6.28;3.25;;;;;;;;;;5089371;28;20083;-66
2024/01/22 03:15:02;;;;;;;5.97;2.80;;;12.00;93.10;;;;;;5089818;28;20089;-66
2024/01/22 03:17:28;;;;;;;7.18;2.90;;;;;;;;;;5068081;28;20052;-66
2024/01/22 03:19:54;;;;;;;5.72;2.90;;;;;;;;;;5091996;28;20044;-66
2024/01/22 03:22:20;;;;;;;5.28;2.50;;;;;;;;;;5091914;28;20036;-66
2024/01/22 03:24:48;;;;;;;5.85;3.08;;;;;;;;;;5091421;28;20527;-66
2024/01/22 03:27:14;;;;;;;6.72;2.80;;;;;;;;;;5091311;28;20048;-66
2024/01/22 03:29:40;;;;;;;5.95;2.92;;;;;;;;;;5090688;28;20500;-66
2024/01/22 03:32:07;;;;;;;5.82;2.88;;;;;;;;;;5074124;28;20193;-66
2024/01/22 03:34:33;;;;;;;5.53;2.85;;;;;;;;;;5073870;28;20055;-66
2024/01/22 03:36:59;;;;;;;5.75;2.80;;;;;;;;;;5061519;28;20139;-66
2024/01/22 03:39:25;;;;;;;5.75;2.53;;;;;;;;;;5070456;28;20102;-66
2024/01/22 03:41:51;;;;;;;6.13;2.72;;;;;;;;;;5053618;28;20048;-66
2024/01/22 03:44:17;;;;;;;5.43;3.00;;;;;;;;;;5037132;28;20080;-66
2024/01/22 03:46:43;;;;;;;4.97;2.80;;;;;;;;;;5058629;28;20052;-66
2024/01/22 03:49:09;;;;;;;6.93;2.72;;;;;;;;;;5082824;28;20040;-66
2024/01/22 03:51:35;;;;;;;5.10;2.70;;;;;;;;;;5059745;28;20393;-66
2024/01/22 03:54:01;;;;;;;4.38;2.30;;;;;;;;;;5070230;28;20048;-66
2024/01/22 03:56:27;;;;;;;5.70;2.65;;;;;;;;;;5071757;28;20132;-66
2024/01/22 03:58:53;;;;;;;5.20;2.72;;;;;;;;;;5070179;28;20083;-66
2024/01/22 04:01:21;;;;;;;5.43;2.53;;;;;;;;;;5054510;28;20050;-66
2024/01/22 04:03:47;;;;;;;5.72;2.47;;;;;;;;;;5071782;28;20409;-66
2024/01/22 04:06:13;;;;;;;6.25;2.60;;;;;;;;;;5036774;28;20051;-66
2024/01/22 04:08:39;;;;;;;5.68;2.60;;;;;;;;;;5050987;28;20090;-66
2024/01/22 04:11:05;;;;;;;4.60;2.55;;;;;;;;;;5073422;28;20084;-66
2024/01/22 04:13:31;;;;;;;5.90;2.53;;;;;;;;;;5090882;28;20059;-66
2024/01/22 04:15:57;;;;;;;5.28;2.50;;;;;;;;;;5073618;28;20409;-66
2024/01/22 04:18:23;;;;;;;5.65;2.55;;;;;;;;;;5071948;28;20442;-67
2024/01/22 04:20:49;;;;;;;5.40;2.97;;;;;;;;;;5073511;28;20040;-66
2024/01/22 04:23:15;;;;;;;5.03;2.50;;;;;;;;;;5073320;28;20397;-66
2024/01/22 04:25:41;;;;;;;4.72;2.40;;;;;;;;;;5060383;28;20459;-66
2024/01/22 04:28:07;;;;;;;4.55;2.17;;;;;;;;;;5073233;28;20044;-66
2024/01/22 04:30:33;;;;;;;4.65;2.63;;;;;;;;;;5053103;28;20049;-66
2024/01/22 04:32:59;;;;;;;4.57;2.40;;;;;;;;;;5079703;28;20036;-66
2024/01/22 04:35:26;;;;;;;4.90;2.20;;;;;;;;;;5089637;28;20048;-66
2024/01/22 04:37:53;;;;;;;4.55;2.22;;;;;;;;;;5056017;28;20413;-67
2024/01/22 04:40:18;;;;;;;4.00;2.05;;;11.80;95.80;;;;;;5076637;28;20127;-66
2024/01/22 04:42:44;;;;;;;3.47;2.00;;;11.80;95.80;;;;;;5061237;28;20283;-66
2024/01/22 04:45:10;;;;;;;4.57;2.10;;;11.80;94.60;;;;;;5067502;28;20058;-66
2024/01/22 04:47:36;;;;;;;4.03;2.13;;;;;;;;;;5082610;28;20071;-66
2024/01/22 04:50:02;;;;;;;5.72;2.30;;;11.80;95.10;;;;;;5074091;28;20048;-66
2024/01/22 04:52:28;;;;;;;4.43;2.45;;;;;;;;;;5094943;28;20048;-67
2024/01/22 04:54:54;;;;;;;4.70;2.30;;;11.90;96.10;;;;;;5059865;28;20044;-67
2024/01/22 04:57:19;;;;;;;3.58;1.80;;;11.80;96.20;;;;;;5071797;28;20113;-66
2024/01/22 04:59:45;;;;;;;3.40;1.90;;;11.80;96.20;;;;;;5054388;28;20531;-66
2024/01/22 05:02:11;;;;;;;3.80;1.90;;;12.00;96.30;;;;;;5090089;28;20078;-66
2024/01/22 05:04:36;;;;;;;3.03;1.65;;;11.90;96.30;;;;;;5039449;28;20057;-66
2024/01/22 05:07:02;;;;;;;3.20;1.70;;;;;;;;;;5074923;28;20043;-66
2024/01/22 05:09:28;;;;;;;3.58;1.90;;;;;;;;;;5073851;28;20067;-67
2024/01/22 05:11:54;;;;;;;3.83;2.10;;;;;;;;;;5074455;28;20123;-66
2024/01/22 05:14:20;;;;;;;4.07;1.90;;;;;;;;;;5076388;28;20374;-66
2024/01/22 05:16:46;;;;;;;3.63;1.70;;;12.00;96.70;;;;;;5084326;28;20040;-66
2024/01/22 05:19:12;;;;;;;5.43;1.85;;;12.00;96.70;;;;;;5040111;28;20060;-67
2024/01/22 05:21:38;;;;;;;3.60;1.80;;;;;;;;;;5072867;28;20672;-66
2024/01/22 05:24:04;;;;;;;2.85;1.75;;;11.80;96.60;;;;;;5090386;28;20056;-66
2024/01/22 05:26:30;;;;;;;3.17;1.75;;;12.00;96.90;;;;;;5074082;28;20048;-66
2024/01/22 05:28:56;;;;;;;3.80;1.60;;;;;;;;;;5067754;28;20040;-66
2024/01/22 05:31:22;;;;;;;2.70;1.50;;;;;;;;;;5063446;28;20052;-66
2024/01/22 05:33:48;;;;;;;4.00;1.77;;;;;;;;;;5075897;28;20051;-67
2024/01/22 05:36:14;;;;;;;2.67;1.50;;;;;;;;;;5065458;28;20040;-66
2024/01/22 05:38:42;;;;;;;2.95;1.80;;;;;;;;;;5072451;28;20067;-66
2024/01/22 05:41:08;;;;;;;2.92;1.70;;;;;;;;;;5039441;28;20589;-66
2024/01/22 05:43:35;;;;;;;3.10;1.60;;;12.00;95.90;;;;;;5055477;28;20044;-66
2024/01/22 05:46:01;;;;;;;2.60;1.50;;;;;;;;;;5072051;28;20044;-66
2024/01/22 05:48:27;;;;;;;3.72;1.70;;;;;;;;;;5055486;28;20055;-66
2024/01/22 05:50:53;;;;;;;3.40;1.60;;;;;;;;;;5088402;28;20048;-66
2024/01/22 05:53:19;;;;;;;2.22;1.30;;;;;;;;;;5093767;28;20051;-66
2024/01/22 05:55:45;;;;;;;3.72;1.50;;;;;;;;;;5093762;28;20058;-66
2024/01/22 05:58:11;;;;;;;2.10;1.27;;;;;;;;;;5093734;28;20071;-66
2024/01/22 06:00:40;;;;;;;3.13;1.52;;;12.20;96.20;;;;;;5075320;28;20052;-67
2024/01/22 06:03:07;;;;;;;2.95;1.40;;;;;;;;;;5070029;28;20371;-66
2024/01/22 06:05:33;;;;;;;3.45;1.63;;;12.20;97.40;;;;;;5073305;28;20098;-65
2024/01/22 06:07:59;;;;;;;2.78;1.63;;;;;;;;;;5071832;28;20040;-65
2024/01/22 06:10:27;;;;;;;3.40;1.60;;;;;;;;;;5075027;28;20634;-65
2024/01/22 06:12:53;;;;;;;2.92;1.40;;;12.20;97.50;;;;;;5073417;28;20048;-65
2024/01/22 06:15:19;;;;;;;2.92;1.33;;;;;;;;;;5093380;28;20089;-65
2024/01/22 06:17:44;;;;;;;3.25;1.50;;;12.40;96.70;;;;;;5093323;28;20048;-66
2024/01/22 06:20:11;;;;;;;2.60;1.35;;;;;;;;;;5091740;28;20044;-66
2024/01/22 06:22:37;;;;;;;3.53;1.40;;;12.10;97.40;;;;;;5092839;28;20055;-65
2024/01/22 06:25:04;;;;;;;3.38;1.55;;;12.30;97.40;;;;;;5069092;28;20053;-65
2024/01/22 06:27:30;;;;;;;2.45;1.40;;;;;;;;;;5071366;28;20497;-65
2024/01/22 06:29:59;;;;;;;5.25;1.92;;;;;;;;;;5072819;28;20193;-66
2024/01/22 06:32:26;;;;;;;3.45;1.50;;;;;;;;;;5070210;28;20052;-66
2024/01/22 06:34:51;;;;;;;3.58;1.33;;;12.20;96.90;;;;;;5073170;28;20063;-65
2024/01/22 06:37:17;;;;;;;3.03;1.40;;;12.50;97.60;;;;;;5059906;28;20493;-66
2024/01/22 06:39:43;;;;;;;3.50;1.55;;;;;;;;;;5080407;28;20040;-66
2024/01/22 06:42:09;;;;;;;2.80;1.42;;;12.50;97.60;;;;;;5048367;28;20123;-65
2024/01/22 06:44:35;;;;;;;4.88;1.50;;;;;;;;;;5066494;28;20131;-65
2024/01/22 06:47:01;;;;;;;3.80;1.48;;;;;;;;;;5066433;28;20080;-65
2024/01/22 06:49:27;;;;;;;2.40;1.13;;;;;;;;;;5054160;28;20044;-66
2024/01/22 06:51:53;;;;;;;3.22;1.13;;;12.50;97.80;;;;;;5064730;28;20043;-65
2024/01/22 06:54:19;;;;;;;2.92;1.25;;;;;;;;;;5091534;28;20173;-65
2024/01/22 06:56:45;;;;;;;3.47;1.30;;;;;;;;;;5060086;28;20508;-65
2024/01/22 06:59:11;;;;;;;2.80;1.27;;;;;;;;;;5073206;28;20044;-65
2024/01/22 07:01:37;;;;;;;4.82;1.40;;;;;;;;;;5092562;28;20056;-65
2024/01/22 07:04:03;;;;;;;3.50;1.40;;;12.50;97.90;;;;;;5074223;28;20117;-65
2024/01/22 07:06:29;;;;;;;3.15;1.20;;;;;;;;;;5053601;28;20490;-65
2024/01/22 07:08:55;;;;;;;4.60;1.17;;;;;;;;;;5070714;28;20048;-65
2024/01/22 07:11:21;;;;;;;3.05;1.10;;;;;;;;;;5070920;28;20135;-65
2024/01/22 07:13:47;;;;;;;3.60;1.40;;;;;;;;;;5070588;28;20071;-65
2024/01/22 07:16:13;;;;;;;3.05;1.10;;;;;;;;;;5054633;28;20048;-65
2024/01/22 07:18:40;;;;;;;3.83;1.48;;;;;;;;;;5070792;28;20401;-66
2024/01/22 07:21:06;;;;;;;3.80;1.05;;;;;;;;;;5037462;28;20044;-65
2024/01/22 07:23:33;;;;;;;5.28;1.23;;;;;;;;;;5037562;28;20037;-66
2024/01/22 07:25:59;;;;;;;3.83;1.42;;;;;;;;;;5037195;28;20099;-66
2024/01/22 07:28:25;;;;;;;3.75;1.35;;;;;;;;;;5053761;28;20036;-66
2024/01/22 07:30:51;;;;;;;4.30;1.17;;;;;;;;;;5070443;28;20104;-66
2024/01/22 07:33:17;;;;;;;3.60;1.17;;;12.60;98.10;;;;;;5038311;28;20080;-66
2024/01/22 07:35:43;;;;;;;3.55;1.15;;;;;;;;;;5070236;28;20076;-66
2024/01/22 07:38:08;;;;;;;5.00;1.73;;;12.60;98.10;;;;;;5053766;28;20044;-66
2024/01/22 07:40:34;;;;;;;3.85;1.20;;;;;;;;;;5063972;28;20058;-66
2024/01/22 07:43:00;;;;;;;5.50;1.42;;;12.60;98.10;;;;;;5088554;28;20048;-66
2024/01/22 07:45:26;;;;;;;5.32;1.70;;;;;;;;;;5054587;28;20052;-66
2024/01/22 07:47:52;;;;;;;5.25;1.60;;;;;;;;;;5076272;28;20056;-66
2024/01/22 07:50:18;;;;;;;7.20;1.83;;;;;;;;;;5066059;28;20044;-66
2024/01/22 07:52:44;;;;;;;7.25;2.20;;;;;;;;;;5088332;28;20048;-65
2024/01/22 07:55:13;;;;;;;7.30;2.00;;;;;;;;;;5086128;28;20048;-66
2024/01/22 07:57:39;;;;;;;6.57;2.00;;;;;;;;;;5036889;28;20543;-65
2024/01/22 08:00:11;;;;;;;7.20;2.22;;;;;;;;;;5053373;28;20048;-65
2024/01/22 08:02:40;;;;;;;7.60;2.10;;;;;;;;;;5053425;28;20048;-65
2024/01/22 08:05:06;;;;;;;5.80;2.15;;;;;;;;;;5049631;28;20324;-66
2024/01/22 08:07:33;;;;;;;6.25;2.10;;;;;;;;;;5040123;28;20040;-66
2024/01/22 08:09:59;;;;;;;6.72;2.10;;;12.80;98.10;;;;;;5060382;28;20442;-66
2024/01/22 08:12:25;;;;;;;6.20;2.40;;;;;;;;;;5074076;28;20052;-65
2024/01/22 08:14:51;;;;;;;7.88;2.35;;;;;;;;;;5076002;28;20039;-66
2024/01/22 08:17:17;;;;;;;7.28;2.38;;;;;;;;;;5074772;28;20434;-65
2024/01/22 08:19:43;;;;;;;6.57;2.28;;;12.80;98.00;;;;;;5075736;28;20501;-66
2024/01/22 08:22:09;;;;;;;6.13;2.10;;;12.70;97.90;;;;;;5093267;28;20039;-66
2024/01/22 08:24:35;;;;;;;6.70;2.42;;;;;;;;;;5060632;28;20087;-66
2024/01/22 08:27:01;;;;;;;6.60;2.50;;;;;;;;;;5073254;28;20423;-65
2024/01/22 08:29:27;;;;;;;7.25;2.53;;;;;;;;;;5088117;28;20048;-66
2024/01/22 08:31:54;;;;;;;7.40;2.35;;;;;;;;;;5093625;28;20039;-66
2024/01/22 08:34:20;;;;;;;6.68;2.22;;;;;;;;;;5075014;28;20059;-66
2024/01/22 08:36:46;;;;;;;6.47;2.15;;;;;;;;;;5075789;28;20500;-66
2024/01/22 08:39:12;;;;;;;9.05;2.25;;;;;;;;;;5065282;28;20445;-66
2024/01/22 08:41:38;;;;;;;11.52;2.97;;;;;;;;;;5079139;28;20083;-66
2024/01/22 08:44:05;;;;;;;7.95;2.78;;;;;;;;;;5073027;28;20130;-66
2024/01/22 08:46:32;;;;;;;8.88;2.25;;;;;;;;;;5074531;28;20048;-66
2024/01/22 08:48:58;;;;;;;8.13;2.25;;;;;;;;;;5070889;28;20502;-68
2024/01/22 08:51:24;;;;;;;7.35;2.17;;;;;;;;;;5076390;28;20043;-67
2024/01/22 08:53:50;;;;;;;8.13;2.67;;;;;;;;;;5077027;28;20055;-67
2024/01/22 08:56:16;;;;;;;11.82;4.55;;;;;;;;;;5058564;28;20103;-67
2024/01/22 08:58:42;;;;;;;23.63;18.85;;;;;;;;;;5058283;28;20465;-69
2024/01/22 09:01:08;;;;;;;51.83;26.33;;;;;;;;;;5076701;28;20397;-66
2024/01/22 09:03:34;;;;;;;104.45;91.72;;;;;;;;;;5075707;28;20035;-67
2024/01/22 09:06:00;;;;;;;107.63;96.45;;;;;;;;;;5057753;28;20048;-67
2024/01/22 09:08:27;;;;;;;105.47;95.05;;;;;;;;;;5092625;28;20611;-67
2024/01/22 09:10:53;;;;;;;173.95;157.98;;;;;;;;;;5074420;28;20075;-67
2024/01/22 09:13:20;;;;;;;150.35;136.65;;;13.50;95.90;;;;;;5074988;28;20465;-66
2024/01/22 09:15:46;;;;;;;128.43;117.20;;;;;;;;;;5076569;28;20084;-66
2024/01/22 09:18:12;;;;;;;114.90;104.97;;;;;;;;;;5076100;28;20048;-66
2024/01/22 09:20:39;;;;;;;106.53;97.30;;;;;;;;;;5073027;28;20050;-66
2024/01/22 09:23:05;;;;;;;98.82;89.93;;;;;;;;;;5088218;28;20128;-66
2024/01/22 09:25:30;;;;;;;89.57;81.97;;;14.40;95.90;;;;;;5091538;28;20071;-67
2024/01/22 09:27:57;;;;;;;85.00;77.90;;;;;;;;;;5057500;28;20061;-66
2024/01/22 09:30:22;;;;;;;77.00;70.28;;;14.80;95.50;;;;;;5072259;28;20127;-67
2024/01/22 09:32:50;;;;;;;72.25;65.93;;;;;;;;;;5040490;28;20127;-67
2024/01/22 09:35:16;;;;;;;67.05;61.38;;;;;;;;;;5053147;28;20055;-67
2024/01/22 09:37:42;;;;;;;59.08;54.15;;;15.40;94.40;;;;;;5056702;28;20040;-67
2024/01/22 09:40:11;;;;;;;55.67;50.95;;;;;;;;;;5040378;28;20048;-67
2024/01/22 09:42:39;;;;;;;53.63;48.83;;;15.70;94.10;;;;;;5093015;28;20044;-67
2024/01/22 09:45:06;;;;;;;49.55;44.92;;;;;;;;;;5090182;28;20048;-66
2024/01/22 09:47:31;;;;;;;47.53;43.25;;;15.80;93.80;;;;;;5088846;28;20055;-66
2024/01/22 09:49:58;;;;;;;45.13;40.92;;;15.80;93.60;;;;;;5058600;28;20041;-65
2024/01/22 09:52:24;;;;;;;39.90;36.17;;;;;;;;;;5090129;28;20052;-67
2024/01/22 09:54:50;;;;;;;43.50;39.33;;;15.90;93.60;;;;;;5073979;28;20044;-66
2024/01/22 09:57:17;;;;;;;84.82;44.90;;;15.90;92.00;;;;;;5073301;28;20044;-69
2024/01/22 09:59:43;;;;;;;273.15;55.63;;;;;;;;;;5058629;28;20040;-68
2024/01/22 10:02:13;;;;;;;376.23;61.42;;;16.10;91.50;;;;;;5071263;28;20052;-68
2024/01/22 10:04:39;;;;;;;326.60;52.53;;;16.60;92.80;;;;;;5068677;28;20059;-67
2024/01/22 10:07:05;;;;;;;323.02;52.20;;;;;;;;;;5069995;28;20044;-67
2024/01/22 10:09:31;;;;;;;270.45;48.33;;;;;;;;;;5057358;28;20409;-65
2024/01/22 10:11:57;;;;;;;216.93;40.75;;;;;;;;;;5089310;28;20130;-65
2024/01/22 10:14:37;;;;;;;193.77;38.95;;;17.00;90.60;;;;;;5071581;28;20048;-65
2024/01/22 10:17:18;;;;;;;190.48;35.45;;;16.90;91.10;;;;;;5049871;28;20389;-69
2024/01/22 10:19:48;;;;;;;173.07;33.63;;;17.10;90.60;;;;;;5053190;28;20098;-66
2024/01/22 10:22:21;;;;;;;159.02;31.00;;;17.10;91.20;;;;;;5059565;28;20187;-66
2024/01/22 10:24:58;;;;;;;128.32;26.63;;;;;;;;;;5042304;28;20064;-67
2024/01/22 10:27:24;;;;;;;113.65;24.73;;;17.20;92.10;;;;;;5071945;28;20052;-65
2024/01/22 10:29:50;;;;;;;100.30;25.17;;;17.50;91.20;;;;;;5041314;28;20062;-65
2024/01/22 10:32:21;;;;;;;90.13;22.95;;;;;;;;;;5056998;28;20048;-66
2024/01/22 10:34:50;;;;;;;97.95;22.58;;;17.50;90.60;;;;;;5074209;28;20056;-67
2024/01/22 10:37:16;;;;;;;85.30;20.33;;;17.50;91.60;;;;;;5073524;28;20401;-66
2024/01/22 10:39:43;;;;;;;94.15;25.40;;;17.50;91.50;;;;;;5053133;28;20050;-67
2024/01/22 10:42:15;;;;;;;79.10;27.00;;;17.40;91.60;;;;;;5054055;28;20055;-70
2024/01/22 10:44:42;;;;;;;79.60;27.83;;;17.40;90.50;;;;;;5037727;28;20057;-67
2024/01/22 10:47:09;;;;;;;89.45;28.98;;;;;;;;;;5052926;28;20048;-66
2024/01/22 10:49:35;;;;;;;73.85;25.70;;;;;;;;;;5073138;28;20706;-64
2024/01/22 10:52:05;;;;;;;68.20;22.23;;;17.10;91.80;;;;;;5059877;28;20036;-64
2024/01/22 10:54:31;;;;;;;61.28;22.40;;;17.10;90.70;;;;;;5056318;28;20495;-65
2024/01/22 10:57:02;;;;;;;58.50;19.30;;;16.80;90.10;;;;;;5068713;28;20397;-63
2024/01/22 10:59:30;;;;;;;63.70;17.85;;;16.90;91.90;;;;;;5054991;28;20074;-63
2024/01/22 11:01:56;;;;;;;52.22;17.88;;;16.70;91.90;;;;;;5071293;28;20048;-62
2024/01/22 11:04:27;;;;;;;52.92;17.20;;;16.80;91.40;;;;;;5091525;28;20044;-64
2024/01/22 11:06:54;;;;;;;55.38;17.13;;;16.80;92.00;;;;;;5054025;28;20102;-65
2024/01/22 11:09:20;;;;;;;47.97;15.20;;;16.90;92.00;;;;;;5057610;28;20087;-64
2024/01/22 11:11:45;;;;;;;48.72;14.18;;;16.90;92.10;;;;;;5069261;28;20083;-62
2024/01/22 11:14:11;;;;;;;45.63;13.60;;;;;;;;;;5039411;28;20116;-64
2024/01/22 11:16:37;;;;;;;43.95;14.02;;;;;;;;;;5091401;28;20051;-65
2024/01/22 11:19:04;;;;;;;36.72;12.63;;;16.80;92.10;;;;;;5055796;28;20598;-64
2024/01/22 11:21:41;;;;;;;38.72;12.27;;;17.00;90.30;;;;;;5071399;28;20394;-63
2024/01/22 11:24:17;;;;;;;32.13;11.25;;;17.10;90.30;;;;;;5092145;28;20068;-64
2024/01/22 11:27:03;;;;;;;39.53;13.27;;;17.30;91.10;;;;;;5086822;28;20052;-66
2024/01/22 11:29:29;;;;;;;56.45;27.95;;;17.20;92.10;;;;;;5064164;28;20417;-64
2024/01/22 11:31:56;;;;;;;60.58;25.90;;;17.00;90.70;;;;;;5088985;28;20497;-62
2024/01/22 11:34:40;;;;;;;63.88;25.73;;;17.30;90.30;;;;;;5089459;28;20569;-62
2024/01/22 11:37:06;;;;;;;52.25;24.48;;;;;;;;;;5091965;28;20771;-66
2024/01/22 11:39:45;;;;;;;55.10;22.48;;;17.00;92.00;;;;;;5053970;28;20355;-67
2024/01/22 11:42:22;;;;;;;50.50;21.88;;;17.00;90.30;;;;;;5069640;28;20052;-66
2024/01/22 11:44:49;;;;;;;42.58;22.00;;;16.90;91.50;;;;;;5093483;28;20102;-66
2024/01/22 11:47:15;;;;;;;47.85;22.63;;;17.00;92.10;;;;;;5061170;28;20420;-66
2024/01/22 11:49:41;;;;;;;44.85;20.25;;;17.00;91.90;;;;;;5094815;28;20048;-67
2024/01/22 11:52:10;;;;;;;41.60;22.50;;;16.90;90.60;;;;;;5058143;28;20148;-66
2024/01/22 11:54:36;;;;;;;40.95;22.00;;;;;;;;;;5075122;28;20428;-66
2024/01/22 11:57:03;;;;;;;36.83;23.60;;;17.20;92.10;;;;;;5060780;28;20047;-66
2024/01/22 11:59:29;;;;;;;40.13;23.33;;;17.20;92.00;;;;;;5092612;28;20052;-67
2024/01/22 12:02:08;;;;;;;37.13;21.98;;;;;;;;;;5076239;28;20143;-67
2024/01/22 12:04:34;;;;;;;41.45;24.65;;;17.40;91.80;;;;;;5056776;28;20532;-66
2024/01/22 12:06:59;;;;;;;34.08;22.15;;;17.40;91.80;;;;;;5092915;28;20076;-66
2024/01/22 12:09:25;;;;;;;37.40;22.90;;;17.30;91.70;;;;;;5072086;28;20443;-66
2024/01/22 12:11:52;;;;;;;35.58;20.75;;;17.40;91.70;;;;;;5077377;28;20082;-67
2024/01/22 12:14:17;;;;;;;32.15;20.42;;;17.20;91.70;;;;;;5078286;28;20076;-67
2024/01/22 12:16:43;;;;;;;33.13;19.60;;;;;;;;;;5074814;28;20378;-67
2024/01/22 12:19:12;;;;;;;29.15;18.88;;;17.50;91.70;;;;;;5058695;28;20075;-66
2024/01/22 12:21:39;;;;;;;31.80;20.83;;;;;;;;;;5062859;28;20444;-66
2024/01/22 12:24:14;;;;;;;33.17;23.30;;;17.60;90.20;;;;;;5040304;28;20057;-67
2024/01/22 12:26:40;;;;;;;32.97;22.75;;;;;;;;;;5058323;28;20052;-66
2024/01/22 12:29:07;;;;;;;36.22;24.65;;;17.50;91.50;;;;;;5060549;28;20054;-67
2024/01/22 12:31:33;;;;;;;28.20;21.25;;;17.50;91.50;;;;;;5060304;28;20055;-66
2024/01/22 12:34:11;;;;;;;28.58;19.48;;;17.60;89.30;;;;;;5095135;28;20067;-67
2024/01/22 12:36:36;;;;;;;34.03;20.85;;;17.70;91.50;;;;;;5094792;28;20062;-67
2024/01/22 12:39:03;;;;;;;40.03;27.17;;;17.50;91.40;;;;;;5089207;28;20036;-64
2024/01/22 12:41:30;;;;;;;45.55;28.95;;;17.60;91.20;;;;;;5092670;28;20048;-63
2024/01/22 12:43:57;;;;;;;63.67;27.70;;;;;;;;;;5094052;28;20071;-68
2024/01/22 12:46:23;;;;;;;47.20;21.67;;;;;;;;;;5070226;28;20059;-65
2024/01/22 12:48:55;;;;;;;39.13;21.92;;;;;;;;;;5075701;28;20036;-66
2024/01/22 12:51:25;;;;;;;57.17;27.05;;;;;;;;;;5055545;28;20045;-66
2024/01/22 12:53:50;;;;;;;145.75;80.70;;;17.30;91.40;;;;;;5039239;28;20041;-66
2024/01/22 12:56:16;;;;;;;112.78;59.35;;;17.30;91.40;;;;;;5056416;28;20450;-67
2024/01/22 12:58:43;;;;;;;113.65;60.10;;;;;;;;;;5074685;28;20406;-66
2024/01/22 13:01:11;;;;;;;103.40;56.58;;;17.30;91.50;;;;;;5057057;28;20126;-66
2024/01/22 13:03:37;;;;;;;98.95;53.90;;;17.20;91.50;;;;;;5060238;28;20052;-66
2024/01/22 13:06:03;;;;;;;91.18;51.22;;;17.20;91.50;;;;;;5043603;28;20447;-66
2024/01/22 13:08:31;;;;;;;83.15;45.95;;;17.00;90.10;;;;;;5043372;28;20041;-66
2024/01/22 13:10:57;;;;;;;86.70;42.75;;;;;;;;;;5075564;28;20493;-66
2024/01/22 13:13:26;;;;;;;66.80;39.15;;;17.10;91.50;;;;;;5073996;28;20052;-66
2024/01/22 13:15:52;;;;;;;63.72;37.50;;;;;;;;;;5056168;28;20048;-67
2024/01/22 13:18:18;;;;;;;63.45;36.25;;;17.00;91.50;;;;;;5056026;28;20053;-66
2024/01/22 13:20:44;;;;;;;58.45;33.80;;;17.10;91.50;;;;;;5056042;28;20393;-66
2024/01/22 13:23:09;;;;;;;58.05;33.13;;;17.10;91.50;;;;;;5025474;28;20106;-66
2024/01/22 13:25:35;;;;;;;55.60;32.30;;;17.20;91.50;;;;;;5055710;28;20336;-66
2024/01/22 13:28:01;;;;;;;50.22;30.65;;;;;;;;;;5056417;28;20094;-66
2024/01/22 13:30:27;;;;;;;49.55;29.30;;;;;;;;;;5056074;28;20412;-66
2024/01/22 13:32:54;;;;;;;47.47;28.02;;;17.30;91.50;;;;;;5055820;28;20509;-66
2024/01/22 13:35:20;;;;;;;47.22;26.23;;;;;;;;;;5078383;28;20076;-66
2024/01/22 13:37:46;;;;;;;42.58;25.60;;;16.90;91.40;;;;;;5039271;28;20094;-66
2024/01/22 13:40:12;;;;;;;40.35;23.88;;;;;;;;;;5073901;28;20048;-66
2024/01/22 13:42:37;;;;;;;40.45;22.73;;;17.00;91.40;;;;;;5055798;28;20405;-66